This is the latest recevied weather packets stored in our database for station/object AE2A-13. If no packets are shown the sender has not sent any weather packets the latest 10 day(s).
| Time | Temp. | Humidity | Pressure | Rain* | Wind** | Luminosity | Snow |
|---|---|---|---|---|---|---|---|
| 1778059203 | 16.11° C | 96% | 1016.8 hPa | 0 mm | - | - | - |
| 1778058304 | 16.11° C | 95% | 1016.6 hPa | 0 mm | - | - | - |
| 1778053804 | 16.11° C | 94% | 1016.7 hPa | 0 mm | - | - | - |
| 1778052004 | 16.67° C | 94% | 1016.7 hPa | 0 mm | - | - | - |
| 1778051103 | 16.67° C | 93% | 1016.7 hPa | 0 mm | - | - | - |
| 1778050504 | 16.67° C | 93% | 1016.8 hPa | 0 mm | - | - | - |
| 1778047804 | 17.22° C | 92% | 1017.3 hPa | 0 mm | - | - | - |
| 1778044803 | 17.78° C | 90% | 1017.7 hPa | 0 mm | - | - | - |
| 1778041803 | 18.89° C | 88% | 1017.7 hPa | 0 mm | - | - | - |
| 1778040004 | 18.89° C | 86% | 1017.7 hPa | 0 mm | - | - | - |
| 1778037903 | 19.44° C | 84% | 1017.6 hPa | 0 mm | - | - | - |
| 1778037004 | 19.44° C | 84% | 1017.6 hPa | 0 mm | - | - | - |
| 1778035503 | 20° C | 81% | 1017.6 hPa | 0 mm | - | - | - |
| 1778034604 | 20.56° C | 80% | 1017.6 hPa | 0 mm | - | - | - |
| 1778034303 | 20.56° C | 79% | 1017.5 hPa | 0 mm | - | - | - |
| 1778034003 | 20.56° C | 79% | 1017.4 hPa | 0 mm | - | - | - |
| 1778030403 | 21.67° C | 75% | 1017.1 hPa | 0 mm | - | - | - |
| 1778027704 | 23.33° C | 70% | 1016.5 hPa | 0 mm | - | - | - |
| 1778027404 | 23.33° C | 70% | 1016.6 hPa | 0 mm | - | - | - |
| 1778023504 | 25.56° C | 64% | 1016.2 hPa | 0 mm | - | - | - |
| 1778022604 | 25.56° C | 62% | 1016.3 hPa | 0 mm | - | - | - |
| 1778021704 | 26.11° C | 61% | 1016.3 hPa | 0 mm | - | - | - |
| 1778019003 | 27.22° C | 56% | 1016.5 hPa | 0 mm | - | - | - |
| 1778018703 | 27.22° C | 55% | 1016.5 hPa | 0 mm | - | - | - |
| 1778016304 | 28.33° C | 53% | 1016.2 hPa | 0 mm | - | - | - |
* Rain latest hour (hover to see other rain measurements)
** Current wind speed in m/s (hover to see current wind gust speed)